LTAM weather

CLOSED Kayseri Airport
Develi, Kayseri Province, Turkey

Public forecast

Using degrees Celsius for public forecast. Weather courtesy of forecast.io.

METAR (pilot weather report)

Closest report is Kayseri Erkilet Airport, 23.2 nm (43.0 km) NNE. Retrieved 2019/06/26 23:20 UTC (2 minutes ago):

LTAU 262320Z 00000KT CAVOK 18/14 Q1017 NOSIG RMK RWY07 VRB02KT

TAF (pilot weather forecast)

Closest forecast is Kayseri Erkilet Airport, 23.2 nm (43.0 km) NNE. Retrieved 2019/06/26 18:03 UTC (5 hours ago):

TAF LTAU 261640Z 2618/2718 VRB02KT CAVOK PROB30 2703/2706 SCT015 BECMG 2707/2710 SCT040 BECMG 2715/2718 CAVOK